sim
Sign-in with your pilot id or email,
or register
Callsign
Passwort

Schedule Details

Flight Number: OEO6731
Departure: San Francisco International Airport (KSFO) at 04:00
Arrival: Munich Airport (EDDM) at 15:20

Weather Information
Getting current METAR information for KSFO 211756Z 34008KT 9SM FEW008 21/13 A2993 RMK AO2 SLP135 T02060133 10206 20133 50002
Getting current METAR information for EDDM 211820Z 10001KT CAVOK 15/13 Q1016 NOSIG

Schedule Frequency

Route Map